createdAt,value
2022-09-21T00:04:51.440Z,7.13
2022-09-21T00:09:53.195Z,4.90
2022-09-21T00:14:56.515Z,5.65
2022-09-21T00:19:58.228Z,6.43
2022-09-21T00:25:02.313Z,7.07
2022-09-21T00:30:07.538Z,4.13
2022-09-21T00:35:09.605Z,6.07
2022-09-21T00:40:12.309Z,7.13
2022-09-21T00:45:21.076Z,4.75
2022-09-21T00:50:24.399Z,5.75
2022-09-21T00:55:31.116Z,5.18
2022-09-21T01:00:32.839Z,5.68
2022-09-21T01:05:34.814Z,7.97
2022-09-21T01:10:53.628Z,5.00
2022-09-21T01:16:16.717Z,8.40
2022-09-21T01:21:23.401Z,6.55
2022-09-21T01:26:34.155Z,5.50
2022-09-21T01:32:02.545Z,4.80
2022-09-21T01:37:09.531Z,6.95
2022-09-21T01:42:13.661Z,6.90
2022-09-21T01:47:17.105Z,5.85
2022-09-21T01:52:25.565Z,6.88
2022-09-21T01:57:34.693Z,7.47
2022-09-21T02:07:41.827Z,6.57
2022-09-21T02:12:43.690Z,5.47
2022-09-21T02:18:05.664Z,6.63
2022-09-21T02:23:19.234Z,6.82
2022-09-21T02:28:33.521Z,7.68
2022-09-21T02:34:01.045Z,7.65
2022-09-21T02:39:10.027Z,10.77
2022-09-21T02:44:19.341Z,7.95
2022-09-21T02:49:56.025Z,7.68
2022-09-21T02:54:58.481Z,10.73
2022-09-21T03:00:00.350Z,11.68
2022-09-21T03:05:02.080Z,11.43
2022-09-21T03:10:04.876Z,12.88
2022-09-21T03:15:06.780Z,12.68
2022-09-21T03:20:08.802Z,13.07
2022-09-21T03:25:12.436Z,9.85
2022-09-21T03:30:14.435Z,10.68
2022-09-21T03:35:16.970Z,11.25
2022-09-21T03:40:19.469Z,8.50
2022-09-21T03:45:27.624Z,7.97
2022-09-21T03:50:29.611Z,8.45
2022-09-21T03:55:31.599Z,8.63
2022-09-21T04:00:33.434Z,8.23
2022-09-21T04:05:35.199Z,8.60
2022-09-21T04:10:40.946Z,8.30
2022-09-21T04:15:42.814Z,6.60
2022-09-21T04:20:44.859Z,8.27
2022-09-21T04:25:49.248Z,9.15
2022-09-21T04:30:55.637Z,7.38
2022-09-21T04:35:57.437Z,8.82
2022-09-21T04:40:59.536Z,11.10
2022-09-21T04:46:06.483Z,10.23
2022-09-21T04:51:09.396Z,10.90
2022-09-21T04:56:14.878Z,8.38
2022-09-21T05:01:17.800Z,11.40
2022-09-21T05:06:19.524Z,10.35
2022-09-21T05:11:21.245Z,9.80
2022-09-21T05:16:22.951Z,9.05
2022-09-21T05:21:25.180Z,9.40
2022-09-21T05:26:26.940Z,8.43
2022-09-21T05:31:42.487Z,11.13
2022-09-21T05:36:49.388Z,8.43
2022-09-21T05:41:51.531Z,8.90
2022-09-21T05:47:03.901Z,9.90
2022-09-21T05:52:35.276Z,10.57
2022-09-21T05:57:49.887Z,10.57
2022-09-21T06:02:59.458Z,8.70
2022-09-21T06:08:01.334Z,9.95
2022-09-21T06:13:03.097Z,9.48
2022-09-21T06:18:05.958Z,10.30
2022-09-21T06:23:09.965Z,10.23
2022-09-21T06:28:13.086Z,9.68
2022-09-21T06:33:20.623Z,7.22
2022-09-21T06:38:23.401Z,12.23
2022-09-21T06:43:25.174Z,11.13
2022-09-21T06:48:28.820Z,8.85
2022-09-21T06:53:32.788Z,10.73
2022-09-21T06:58:35.138Z,10.57
2022-09-21T07:03:38.547Z,9.88
2022-09-21T07:14:02.127Z,12.43
2022-09-21T07:19:11.152Z,10.23
2022-09-21T07:24:14.983Z,14.82
2022-09-21T07:29:16.708Z,10.45
2022-09-21T07:34:18.520Z,9.32
2022-09-21T07:39:20.228Z,10.30
2022-09-21T07:44:22.644Z,9.27
2022-09-21T07:49:24.446Z,10.38
2022-09-21T07:54:26.171Z,9.32
2022-09-21T07:59:28.287Z,12.00
2022-09-21T08:04:30.156Z,9.40
2022-09-21T08:09:32.104Z,10.00
2022-09-21T08:14:34.605Z,9.93
2022-09-21T08:19:36.391Z,12.18
2022-09-21T08:24:38.902Z,8.18
2022-09-21T08:29:40.686Z,8.75
2022-09-21T08:34:42.409Z,8.32
2022-09-21T08:39:44.197Z,7.82
2022-09-21T08:44:53.791Z,7.95
2022-09-21T08:50:01.836Z,8.63
2022-09-21T08:55:17.910Z,7.88
2022-09-21T09:00:20.417Z,7.13
2022-09-21T09:05:34.297Z,8.50
2022-09-21T09:10:45.332Z,7.28
2022-09-21T09:16:08.469Z,9.52
2022-09-21T09:21:30.751Z,7.57
2022-09-21T09:26:45.832Z,7.80
2022-09-21T09:31:50.104Z,8.02
2022-09-21T09:36:59.565Z,7.07
2022-09-21T09:42:28.339Z,5.50
2022-09-21T09:48:01.049Z,6.47
2022-09-21T09:53:21.818Z,6.40
2022-09-21T09:58:26.122Z,5.95
2022-09-21T10:03:28.468Z,6.85
2022-09-21T10:08:47.243Z,3.83
2022-09-21T10:13:49.569Z,6.03
2022-09-21T10:18:58.931Z,5.47
2022-09-21T10:29:18.545Z,5.65
2022-09-21T10:34:20.311Z,4.78
2022-09-21T10:39:24.828Z,4.90
2022-09-21T10:44:39.648Z,4.85
2022-09-21T10:49:46.306Z,3.42
2022-09-21T10:54:52.175Z,3.97
2022-09-21T10:59:54.281Z,4.30
2022-09-21T11:05:22.914Z,2.45
2022-09-21T11:10:39.519Z,4.22
2022-09-21T11:15:51.766Z,2.67
2022-09-21T11:20:59.582Z,2.95
2022-09-21T11:26:15.194Z,2.70
2022-09-21T11:31:58.630Z,2.35
2022-09-21T11:37:27.284Z,1.67
2022-09-21T11:42:55.689Z,2.20
2022-09-21T11:47:57.377Z,3.33
2022-09-21T11:53:28.675Z,2.85
2022-09-21T11:58:34.356Z,2.03
2022-09-21T12:04:14.062Z,4.22
2022-09-21T12:09:53.212Z,1.87
2022-09-21T12:15:28.909Z,1.48
2022-09-21T12:21:06.192Z,4.03
2022-09-21T12:26:10.587Z,1.95
2022-09-21T12:31:25.715Z,1.55
2022-09-21T12:37:05.307Z,1.48
2022-09-21T12:42:26.831Z,1.93
2022-09-21T12:47:34.525Z,2.00
2022-09-21T12:52:37.574Z,3.47
2022-09-21T12:58:20.888Z,3.38
2022-09-21T13:03:44.825Z,2.13
2022-09-21T13:14:02.692Z,2.92
2022-09-21T13:19:13.395Z,2.35
2022-09-21T13:24:30.604Z,2.35
2022-09-21T13:29:34.792Z,1.90
2022-09-21T13:34:38.497Z,2.95
2022-09-21T13:39:58.793Z,2.47
2022-09-21T13:45:15.603Z,4.90
2022-09-21T13:50:31.417Z,4.85
2022-09-21T13:55:39.875Z,3.03
2022-09-21T14:00:51.875Z,2.95
2022-09-21T14:06:01.097Z,3.13
2022-09-21T14:11:10.176Z,2.60
2022-09-21T14:16:47.542Z,2.40
2022-09-21T14:22:05.426Z,2.22
2022-09-21T14:27:28.663Z,1.92
2022-09-21T14:32:38.663Z,3.05
2022-09-21T14:37:52.051Z,1.77
2022-09-21T14:42:55.533Z,1.88
2022-09-21T14:48:30.636Z,2.83
2022-09-21T14:54:17.722Z,5.32
2022-09-21T14:59:35.751Z,1.88
2022-09-21T15:04:45.939Z,2.20
2022-09-21T15:10:41.030Z,1.60
2022-09-21T15:16:23.403Z,4.07
2022-09-21T15:21:27.994Z,2.45
2022-09-21T15:26:34.526Z,1.85
2022-09-21T15:31:39.270Z,2.25
2022-09-21T15:36:42.992Z,3.10
2022-09-21T15:41:47.531Z,4.28
2022-09-21T15:46:53.197Z,2.85
2022-09-21T15:52:05.233Z,3.45
2022-09-21T15:57:25.305Z,1.75
2022-09-21T16:02:34.183Z,1.48
2022-09-21T16:07:37.877Z,3.55
2022-09-21T16:12:44.138Z,2.92
2022-09-21T16:18:03.442Z,3.83
2022-09-21T16:23:11.901Z,2.97
2022-09-21T16:28:17.204Z,2.60
2022-09-21T16:33:44.175Z,3.08
2022-09-21T16:38:47.177Z,3.60
2022-09-21T16:43:50.956Z,3.20
2022-09-21T16:48:54.948Z,3.38
2022-09-21T16:53:56.717Z,3.25
2022-09-21T16:59:03.627Z,4.00
2022-09-21T17:04:05.387Z,5.75
2022-09-21T17:09:27.071Z,3.30
2022-09-21T17:14:35.706Z,5.55
2022-09-21T17:19:37.555Z,7.07
2022-09-21T17:24:50.264Z,14.00
2022-09-21T17:29:55.096Z,6.13
2022-09-21T17:35:30.940Z,7.78
2022-09-21T17:40:33.026Z,8.68
2022-09-21T17:46:10.175Z,7.75
2022-09-21T17:51:12.260Z,5.35
2022-09-21T17:56:40.076Z,5.47
2022-09-21T18:01:42.069Z,7.22
2022-09-21T18:06:44.146Z,6.93
2022-09-21T18:12:18.336Z,6.57
2022-09-21T18:17:58.460Z,6.55
2022-09-21T18:23:31.875Z,8.18
2022-09-21T18:28:42.162Z,8.82
2022-09-21T18:34:13.179Z,6.30
2022-09-21T18:39:21.065Z,5.40
2022-09-21T18:44:53.276Z,7.13
2022-09-21T18:50:11.076Z,6.88
2022-09-21T18:55:28.891Z,7.22
2022-09-21T19:00:31.579Z,7.25
2022-09-21T19:05:33.867Z,6.75
2022-09-21T19:10:39.108Z,4.68
2022-09-21T19:16:07.646Z,4.35
2022-09-21T19:21:40.274Z,6.72
2022-09-21T19:27:17.057Z,4.90
2022-09-21T19:32:30.996Z,9.05
2022-09-21T19:37:32.839Z,6.28
2022-09-21T19:42:54.743Z,6.57
2022-09-21T19:48:04.771Z,13.93
2022-09-21T19:53:25.157Z,7.00
2022-09-21T19:58:45.849Z,6.55
2022-09-21T20:03:48.584Z,7.97
2022-09-21T20:09:12.606Z,6.72
2022-09-21T20:14:43.538Z,5.80
2022-09-21T20:19:57.406Z,8.15
2022-09-21T20:25:16.815Z,7.00
2022-09-21T20:30:22.372Z,8.23
2022-09-21T20:35:26.810Z,9.10
2022-09-21T20:40:29.331Z,8.75
2022-09-21T20:45:33.141Z,9.65
2022-09-21T20:50:34.865Z,7.60
2022-09-21T20:55:37.102Z,9.80
2022-09-21T21:00:39.174Z,9.38
2022-09-21T21:05:40.958Z,8.48
2022-09-21T21:10:46.789Z,10.50
2022-09-21T21:15:53.030Z,8.18
2022-09-21T21:20:54.837Z,9.68
2022-09-21T21:25:59.128Z,11.85
2022-09-21T21:31:01.038Z,8.30
2022-09-21T21:36:07.423Z,10.15
2022-09-21T21:41:12.621Z,8.38
2022-09-21T21:46:14.389Z,8.02
2022-09-21T21:51:16.112Z,7.55
2022-09-21T21:56:20.027Z,8.18
2022-09-21T22:01:24.571Z,9.93
2022-09-21T22:06:27.625Z,8.73
2022-09-21T22:11:30.913Z,9.05
2022-09-21T22:16:34.384Z,7.80
2022-09-21T22:21:51.700Z,12.20
2022-09-21T22:26:55.785Z,7.20
2022-09-21T22:31:57.731Z,6.88
2022-09-21T22:37:00.549Z,7.13
2022-09-21T22:42:03.327Z,8.02
2022-09-21T22:47:05.249Z,9.50
2022-09-21T22:52:07.486Z,6.70
2022-09-21T22:57:09.206Z,6.15
2022-09-21T23:02:11.667Z,6.30
2022-09-21T23:07:14.739Z,5.93
2022-09-21T23:12:18.129Z,5.55
2022-09-21T23:17:19.833Z,7.57
2022-09-21T23:22:21.606Z,9.52
2022-09-21T23:27:23.340Z,7.35
2022-09-21T23:32:25.928Z,5.97
2022-09-21T23:37:28.666Z,7.10
2022-09-21T23:42:30.425Z,5.93
2022-09-21T23:47:32.149Z,7.18
2022-09-21T23:52:33.882Z,5.80
2022-09-21T23:57:35.607Z,5.93
